Time;durP1;ratioP1;P1;durP2;ratioP2;P2;SDS_P1;SDS_P2;PMS_P1;PMS_P2;Temp;Humidity;BMP_temperature;BMP_pressure;BME280_temperature;BME280_humidity;BME280_pressure;Samples;Min_cycle;Max_cycle;Signal;HPM_P1;HPM_P2
2021/11/15 00:03:25;;;;;;;;;;;4.60;99.90;;;3.40;100.00;96051.53;10449716;28;1818;-74
2021/11/15 00:08:28;;;;;;;;;;;4.60;99.90;;;3.52;100.00;96046.28;10458450;28;1702;-75
2021/11/15 00:13:31;;;;;;;;;;;4.60;99.90;;;3.57;100.00;96050.94;10456064;28;1966;-74
2021/11/15 00:18:34;;;;;;;;;;;4.70;99.90;;;3.48;100.00;96055.72;10454752;28;1846;-75
2021/11/15 00:23:37;;;;;;;;;;;4.70;99.90;;;3.65;100.00;96050.63;10454602;28;1963;-74
2021/11/15 00:28:40;;;;;;;;;;;4.70;99.90;;;3.45;100.00;96050.88;10456693;28;1846;-75
2021/11/15 00:33:43;;;;;;;;;;;4.70;99.90;;;3.64;100.00;96054.34;10444346;28;1918;-74
2021/11/15 00:38:46;;;;;;;;;;;4.70;99.90;;;3.40;100.00;96061.34;10449706;28;1947;-74
2021/11/15 00:43:48;;;;;;;;;;;4.70;99.90;;;3.45;100.00;96056.19;10455815;28;1877;-74
2021/11/15 00:48:55;;;;;;;;;;;4.60;99.90;;;3.36;100.00;96073.44;10461528;28;1313;-74
2021/11/15 00:53:58;;;;;;;;;;;4.60;99.90;;;3.42;100.00;96061.94;10454273;28;1977;-75
2021/11/15 00:59:01;;;;;;;;;;;4.60;99.90;;;3.44;100.00;96059.88;10451086;28;1876;-74
2021/11/15 01:04:05;;;;;;;;;;;4.60;99.90;;;3.33;100.00;96074.72;10440109;28;1877;-75
2021/11/15 01:09:08;;;;;;;;;;;4.60;99.90;;;3.35;100.00;96069.16;10439610;28;1897;-75
2021/11/15 01:14:11;;;;;;;;;;;4.50;99.90;;;3.39;100.00;96073.00;10444596;28;1912;-75
2021/11/15 01:19:14;;;;;;;;;;;4.50;99.90;;;3.53;100.00;96063.84;10440960;28;1611;-75
2021/11/15 01:24:17;;;;;;;;;;;4.60;99.90;;;3.53;100.00;96063.84;10440665;28;1911;-75
2021/11/15 01:29:20;;;;;;;;;;;4.70;99.90;;;3.40;100.00;96064.00;10443147;28;1955;-75
2021/11/15 01:34:23;;;;;;;;;;;4.70;99.90;;;3.50;100.00;96059.00;10440458;28;1960;-75
2021/11/15 01:39:26;;;;;;;;;;;4.60;99.90;;;3.37;100.00;96052.00;10449929;28;1869;-75
2021/11/15 01:44:32;;;;;;;;;;;4.60;99.90;;;3.40;100.00;96059.50;10444678;28;1848;-75
2021/11/15 01:49:34;;;;;;;;;;;4.60;99.90;;;3.40;100.00;96058.69;10439563;28;1989;-75
2021/11/15 01:54:37;;;;;;;;;;;4.50;99.90;;;3.42;100.00;96056.63;10445847;28;1622;-75
2021/11/15 01:59:40;;;;;;;;;;;4.50;99.90;;;3.35;100.00;96063.84;10445239;28;1822;-76
2021/11/15 02:04:43;;;;;;;;;;;4.50;99.90;;;3.39;100.00;96051.75;10440527;28;1850;-74
2021/11/15 02:09:46;;;;;;;;;;;4.60;99.90;;;3.41;100.00;96039.06;10448052;28;1975;-73
2021/11/15 02:14:51;;;;;;;;;;;4.50;99.90;;;3.51;100.00;96042.00;10444255;28;2036;-74
2021/11/15 02:20:03;;;;;;;;;;;4.60;99.90;;;3.43;100.00;96029.00;10437817;28;1920;-73
2021/11/15 02:25:06;;;;;;;;;;;4.60;99.90;;;3.47;100.00;96035.50;10440407;28;1830;-73
2021/11/15 02:30:10;;;;;;;;;;;4.60;99.90;;;3.47;100.00;96038.16;10452491;28;1974;-73
2021/11/15 02:35:33;;;;;;;;;;;4.60;99.90;;;3.64;100.00;96025.91;10449099;28;1985;-74
2021/11/15 02:40:36;;;;;;;;;;;4.70;99.90;;;3.44;100.00;96028.00;10453836;28;1960;-74
2021/11/15 02:45:39;;;;;;;;;;;4.70;99.90;;;3.36;100.00;96038.91;10446823;28;1925;-74
2021/11/15 02:50:42;;;;;;;;;;;4.60;99.90;;;3.38;100.00;96028.88;10453832;28;1984;-74
2021/11/15 02:55:45;;;;;;;;;;;4.50;99.90;;;3.38;100.00;96031.53;10449142;28;2136;-74
2021/11/15 03:00:48;;;;;;;;;;;4.50;99.90;;;3.42;100.00;96030.84;10459958;28;1941;-74
2021/11/15 03:05:51;;;;;;;;;;;4.50;99.90;;;3.38;100.00;96035.00;10449392;28;1861;-74
2021/11/15 03:10:58;;;;;;;;;;;4.60;99.90;;;3.31;100.00;96033.44;10447184;28;1975;-75
2021/11/15 03:16:01;;;;;;;;;;;4.50;99.90;;;3.19;100.00;96030.72;10452985;28;1916;-75
2021/11/15 03:21:04;;;;;;;;;;;4.40;99.90;;;3.04;100.00;96028.41;10451101;28;1858;-75
2021/11/15 03:26:07;;;;;;;;;;;4.30;99.90;;;3.11;100.00;96025.69;10453756;28;2402;-74
2021/11/15 03:31:10;;;;;;;;;;;4.30;99.90;;;3.20;100.00;96024.38;10450654;28;2065;-75
2021/11/15 03:36:13;;;;;;;;;;;4.30;99.90;;;3.22;100.00;96020.44;10451247;28;2418;-74
2021/11/15 03:41:16;;;;;;;;;;;4.40;99.90;;;3.33;100.00;96020.75;10452884;28;1990;-74
2021/11/15 03:46:19;;;;;;;;;;;4.40;99.90;;;3.31;100.00;96025.47;10451729;28;2050;-74
2021/11/15 03:51:22;;;;;;;;;;;4.50;99.90;;;3.38;100.00;96026.22;10446888;28;2086;-75
2021/11/15 03:56:27;;;;;;;;;;;4.50;99.90;;;3.50;100.00;96033.22;10446463;28;2117;-74
2021/11/15 04:01:32;;;;;;;;;;;4.60;99.90;;;3.40;100.00;96024.94;10453643;28;1903;-74
2021/11/15 04:06:39;;;;;;;;;;;4.60;99.90;;;3.43;100.00;96026.34;10477427;28;1955;-75
2021/11/15 04:11:42;;;;;;;;;;;4.60;99.90;;;3.39;100.00;96026.00;10496011;28;2003;-74
2021/11/15 04:16:49;;;;;;;;;;;4.60;99.90;;;3.39;100.00;96025.19;10505618;28;1936;-74
2021/11/15 04:22:12;;;;;;;;;;;4.60;99.90;;;3.24;100.00;96022.88;10511034;28;1798;-73
2021/11/15 04:27:15;;;;;;;;;;;4.50;99.90;;;3.24;100.00;96029.03;10506448;28;2160;-74
2021/11/15 04:32:20;;;;;;;;;;;4.50;99.90;;;3.11;100.00;96013.19;10509205;28;2086;-74
2021/11/15 04:37:23;;;;;;;;;;;4.30;99.90;;;3.16;100.00;96001.94;10517449;28;1982;-74
2021/11/15 04:42:26;;;;;;;;;;;4.30;99.90;;;3.09;100.00;95994.03;10507599;28;2093;-74
2021/11/15 04:47:29;;;;;;;;;;;4.30;99.90;;;3.07;100.00;95990.78;10501024;28;1630;-73
2021/11/15 04:52:32;;;;;;;;;;;4.30;99.90;;;3.04;100.00;96012.47;10455497;28;2067;-74
2021/11/15 04:57:34;;;;;;;;;;;4.20;99.90;;;3.07;100.00;96011.22;10459679;28;1895;-73
2021/11/15 05:02:37;;;;;;;;;;;4.20;99.90;;;3.09;100.00;96007.31;10447570;28;1758;-74
2021/11/15 05:07:40;;;;;;;;;;;4.20;99.90;;;2.98;100.00;95992.91;10449635;28;1986;-74
2021/11/15 05:12:43;;;;;;;;;;;4.20;99.90;;;2.96;100.00;96010.91;10449349;28;2186;-73
2021/11/15 05:17:46;;;;;;;;;;;4.10;99.90;;;3.01;100.00;96007.59;10456450;28;2191;-76
2021/11/15 05:22:50;;;;;;;;;;;4.20;99.90;;;3.04;100.00;96001.84;10458396;28;2061;-75
2021/11/15 05:27:53;;;;;;;;;;;4.20;99.90;;;3.07;100.00;96001.41;10454445;28;2035;-75
2021/11/15 05:32:56;;;;;;;;;;;4.20;99.90;;;3.01;100.00;96002.28;10439538;28;1997;-76
2021/11/15 05:37:59;;;;;;;;;;;4.30;99.90;;;2.99;100.00;96009.69;10447043;28;2043;-75
2021/11/15 05:43:02;;;;;;;;;;;4.10;99.90;;;2.96;100.00;96015.41;10452064;28;1896;-74
2021/11/15 05:48:05;;;;;;;;;;;4.10;99.90;;;3.02;100.00;96027.00;10448993;28;1905;-74
2021/11/15 05:53:08;;;;;;;;;;;4.20;99.90;;;3.01;100.00;96039.47;10449200;28;1977;-75
2021/11/15 05:58:11;;;;;;;;;;;4.20;99.90;;;2.98;100.00;96027.44;10445160;28;1921;-74
2021/11/15 06:03:14;;;;;;;;;;;4.20;99.90;;;2.94;100.00;96038.72;10452123;28;1953;-74
2021/11/15 06:08:17;;;;;;;;;;;4.10;99.90;;;2.98;100.00;96045.22;10460973;28;1854;-74
2021/11/15 06:13:20;;;;;;;;;;;4.10;99.90;;;3.10;100.00;96034.69;10456027;28;1914;-74
2021/11/15 06:18:23;;;;;;;;;;;4.10;99.90;;;3.18;100.00;96039.69;10457308;28;1955;-74
2021/11/15 06:23:26;;;;;;;;;;;4.20;99.90;;;3.20;100.00;96033.16;10464263;28;2051;-74
2021/11/15 06:28:29;;;;;;;;;;;4.40;99.90;;;3.16;100.00;96042.59;10464700;28;1508;-75
2021/11/15 06:33:32;;;;;;;;;;;4.30;99.90;;;3.05;100.00;96043.28;10452609;28;1918;-74
2021/11/15 06:38:35;;;;;;;;;;;4.20;99.90;;;3.09;100.00;96052.47;10457728;28;1209;-74
2021/11/15 06:43:38;;;;;;;;;;;4.20;99.90;;;3.15;100.00;96050.78;10454318;28;1901;-75
2021/11/15 06:48:41;;;;;;;;;;;4.30;99.90;;;3.24;100.00;96049.44;10453892;28;1955;-74
2021/11/15 06:54:05;;;;;;;;;;;4.40;99.90;;;3.19;100.00;96055.44;10460308;28;1899;-75
2021/11/15 06:59:08;;;;;;;;;;;4.40;99.90;;;3.19;100.00;96057.28;10458578;28;1430;-74
2021/11/15 07:04:11;;;;;;;;;;;4.30;99.90;;;3.31;100.00;96060.84;10455547;28;1360;-74
2021/11/15 07:09:14;;;;;;;;;;;4.40;99.90;;;3.22;100.00;96068.25;10460815;28;1836;-74
2021/11/15 07:14:17;;;;;;;;;;;4.40;99.90;;;3.27;100.00;96080.09;10455826;28;1910;-74
2021/11/15 07:19:20;;;;;;;;;;;4.40;99.90;;;3.43;100.00;96079.50;10455246;28;1890;-75
2021/11/15 07:24:23;;;;;;;;;;;4.50;99.90;;;3.38;100.00;96087.34;10437158;28;1890;-77
2021/11/15 07:29:26;;;;;;;;;;;4.50;99.90;;;3.48;100.00;96083.13;10452253;28;1869;-77
2021/11/15 07:34:30;;;;;;;;;;;4.60;99.90;;;3.44;100.00;96076.63;10446786;28;1910;-78
2021/11/15 07:39:38;;;;;;;;;;;4.60;99.90;;;3.45;100.00;96082.75;10455627;28;1904;-79
2021/11/15 07:44:41;;;;;;;;;;;4.60;99.90;;;3.51;100.00;96080.03;10452529;28;1932;-79
2021/11/15 07:49:44;;;;;;;;;;;4.70;99.90;;;3.41;100.00;96092.19;10450682;28;1917;-76
2021/11/15 07:54:47;;;;;;;;;;;4.60;99.90;;;3.42;100.00;96097.28;10450751;28;1975;-75
2021/11/15 07:59:50;;;;;;;;;;;4.60;99.90;;;3.29;100.00;96093.97;10475995;28;1806;-76
2021/11/15 08:04:53;;;;;;;;;;;4.50;99.90;;;3.34;100.00;96091.47;10449856;28;1944;-78
2021/11/15 08:09:56;;;;;;;;;;;4.50;99.90;;;3.38;100.00;96084.69;10466569;28;1890;-81
2021/11/15 08:15:01;;;;;;;;;;;4.50;99.90;;;3.28;100.00;96089.69;10482616;28;1981;-78
2021/11/15 08:20:04;;;;;;;;;;;4.50;99.90;;;3.38;100.00;96090.81;10459014;28;1758;-78
2021/11/15 08:25:07;;;;;;;;;;;4.50;99.90;;;3.44;100.00;96103.22;10449469;28;1889;-77
2021/11/15 08:30:10;;;;;;;;;;;4.60;99.90;;;3.46;100.00;96095.81;10456381;28;1884;-74
2021/11/15 08:35:13;;;;;;;;;;;4.70;99.90;;;3.68;100.00;96096.19;10448512;28;1942;-75
2021/11/15 08:40:16;;;;;;;;;;;4.70;99.90;;;3.56;100.00;96095.28;10445017;28;1925;-76
2021/11/15 08:45:20;;;;;;;;;;;4.70;99.90;;;3.40;100.00;96102.03;10439903;28;1842;-77
2021/11/15 08:50:23;;;;;;;;;;;4.70;99.90;;;3.45;100.00;96093.41;10446835;28;1846;-78
2021/11/15 08:55:26;;;;;;;;;;;4.60;99.90;;;3.49;100.00;96099.88;10441185;28;1918;-73
2021/11/15 09:00:29;;;;;;;;;;;4.60;99.90;;;3.68;100.00;96104.16;10447253;28;1890;-73
2021/11/15 09:05:32;;;;;;;;;;;4.70;99.90;;;3.69;100.00;96100.50;10442695;28;1716;-72
2021/11/15 09:10:36;;;;;;;;;;;4.80;99.90;;;3.65;100.00;96093.97;10447298;28;1874;-72
2021/11/15 09:15:39;;;;;;;;;;;4.80;99.90;;;3.93;100.00;96092.63;10448056;28;2061;-75
2021/11/15 09:20:42;;;;;;;;;;;4.90;99.90;;;4.02;100.00;96093.97;10440539;28;1799;-73
2021/11/15 09:25:45;;;;;;;;;;;5.10;99.90;;;3.97;100.00;96097.28;10443163;28;1909;-72
2021/11/15 09:30:48;;;;;;;;;;;5.10;99.90;;;3.92;100.00;96094.47;10437721;28;1731;-74
2021/11/15 09:35:51;;;;;;;;;;;5.10;99.90;;;3.89;100.00;96094.13;10449872;28;2053;-74
2021/11/15 09:40:56;;;;;;;;;;;5.00;99.90;;;4.04;100.00;96098.00;10458414;28;1897;-74
2021/11/15 09:45:59;;;;;;;;;;;5.10;99.90;;;3.70;100.00;96104.78;10450051;28;1854;-74
2021/11/15 09:51:02;;;;;;;;;;;5.10;99.90;;;4.03;100.00;96098.22;10444905;28;1818;-74
2021/11/15 09:56:05;;;;;;;;;;;5.00;99.90;;;3.89;100.00;96094.13;10444200;28;2073;-75
2021/11/15 10:01:07;;;;;;;;;;;5.10;99.90;;;4.04;100.00;96102.50;10440387;28;1853;-74
2021/11/15 10:06:11;;;;;;;;;;;5.10;99.90;;;3.92;100.00;96105.09;10448527;28;1988;-75
2021/11/15 10:11:13;;;;;;;;;;;5.10;99.90;;;3.98;100.00;96093.56;10458950;28;1905;-75
2021/11/15 10:16:16;;;;;;;;;;;5.00;99.90;;;3.97;100.00;96096.47;10448580;28;1914;-77
2021/11/15 10:21:19;;;;;;;;;;;5.10;99.90;;;3.99;100.00;96079.25;10449977;28;1865;-76
2021/11/15 10:26:26;;;;;;;;;;;5.10;99.90;;;4.08;100.00;96090.41;10445249;28;1874;-76
2021/11/15 10:31:30;;;;;;;;;;;5.10;99.90;;;4.08;100.00;96087.75;10451022;28;1797;-75
2021/11/15 10:36:33;;;;;;;;;;;5.20;99.90;;;4.14;100.00;96092.16;10431856;28;2100;-71
2021/11/15 10:41:36;;;;;;;;;;;5.30;99.90;;;4.24;100.00;96073.78;10442889;28;1893;-71
2021/11/15 10:46:39;;;;;;;;;;;5.30;99.90;;;3.91;100.00;96071.56;10439302;28;1802;-71
2021/11/15 10:51:45;;;;;;;;;;;5.20;99.90;;;3.98;100.00;96079.47;10437107;28;1999;-71
2021/11/15 10:57:00;;;;;;;;;;;5.10;99.90;;;3.89;100.00;96067.53;10443330;28;1902;-77
2021/11/15 11:02:03;;;;;;;;;;;5.10;99.90;;;4.22;100.00;96059.09;10458658;28;1959;-76
2021/11/15 11:07:08;;;;;;;;;;;5.10;99.90;;;4.39;100.00;96061.91;10458516;28;1869;-72
2021/11/15 11:12:13;;;;;;;;;;;5.40;99.90;;;4.07;100.00;96055.00;10466029;28;1948;-79
2021/11/15 11:17:16;;;;;;;;;;;5.30;99.90;;;3.78;100.00;96055.78;10466975;28;1947;-79
2021/11/15 11:22:50;;;;;;;;;;;5.10;99.90;;;3.91;100.00;96057.47;10478015;28;2016;-79
2021/11/15 11:27:55;;;;;;;;;;;5.00;99.90;;;3.76;100.00;96061.34;10468700;28;2153;-78
2021/11/15 11:32:58;;;;;;;;;;;5.00;99.90;;;3.99;100.00;96051.81;10470734;28;1956;-81
2021/11/15 11:38:01;;;;;;;;;;;5.00;99.90;;;4.28;100.00;96051.03;10475343;28;1956;-78
2021/11/15 11:43:04;;;;;;;;;;;5.20;99.90;;;3.96;100.00;96046.97;10482287;28;1760;-80
2021/11/15 11:48:07;;;;;;;;;;;5.20;99.90;;;3.93;100.00;96061.50;10473310;28;1905;-80
2021/11/15 11:53:10;;;;;;;;;;;5.10;99.90;;;3.89;100.00;96051.56;10468476;28;1886;-80
2021/11/15 11:58:13;;;;;;;;;;;5.10;99.90;;;4.04;100.00;96036.00;10468137;28;2301;-79
2021/11/15 12:03:16;;;;;;;;;;;5.10;99.90;;;4.02;100.00;96030.13;10470729;28;1704;-79
2021/11/15 12:08:19;;;;;;;;;;;5.00;99.90;;;3.96;100.00;96026.50;10425656;28;1854;-70
2021/11/15 12:13:23;;;;;;;;;;;5.10;99.90;;;3.90;100.00;96032.72;10464988;28;1910;-76
2021/11/15 12:18:26;;;;;;;;;;;5.00;99.90;;;3.88;100.00;96031.31;10452237;28;1838;-75
2021/11/15 12:23:29;;;;;;;;;;;4.90;99.90;;;3.95;100.00;96035.53;10442572;28;1917;-77
2021/11/15 12:28:32;;;;;;;;;;;5.00;99.90;;;4.04;100.00;96020.84;10442865;28;1893;-76
2021/11/15 12:33:35;;;;;;;;;;;5.10;99.90;;;4.03;100.00;96016.59;10428616;28;1981;-74
2021/11/15 12:38:38;;;;;;;;;;;5.10;99.90;;;4.24;100.00;96004.59;10442506;28;1858;-74
2021/11/15 12:43:41;;;;;;;;;;;5.30;99.90;;;4.43;100.00;96009.84;10443229;28;1924;-76
2021/11/15 12:48:50;;;;;;;;;;;5.40;99.90;;;4.40;100.00;96012.97;10440466;28;1925;-74
2021/11/15 12:53:52;;;;;;;;;;;5.50;99.90;;;4.39;100.00;96014.00;10437321;28;1922;-74
2021/11/15 12:58:56;;;;;;;;;;;5.50;99.90;;;4.25;100.00;96027.50;10440437;28;1948;-73
2021/11/15 13:03:58;;;;;;;;;;;5.50;99.90;;;4.23;100.00;96028.78;10436005;28;1848;-74
2021/11/15 13:09:01;;;;;;;;;;;5.40;99.90;;;4.14;100.00;96008.88;10440683;28;2039;-73
2021/11/15 13:14:04;;;;;;;;;;;5.30;99.90;;;4.41;100.00;96010.09;10441067;28;2380;-73
2021/11/15 13:19:08;;;;;;;;;;;5.40;99.90;;;3.89;100.00;96011.69;10440682;28;2023;-75
2021/11/15 13:24:11;;;;;;;;;;;5.40;99.90;;;3.94;100.00;96003.81;10444153;28;1801;-75
2021/11/15 13:29:16;;;;;;;;;;;5.20;99.90;;;4.00;100.00;96000.25;10438618;28;1957;-75
2021/11/15 13:34:19;;;;;;;;;;;5.20;99.90;;;3.93;100.00;96010.16;10440304;28;2072;-74
2021/11/15 13:39:22;;;;;;;;;;;5.10;99.90;;;4.11;100.00;96001.34;10442378;28;1932;-75
2021/11/15 13:44:25;;;;;;;;;;;5.10;99.90;;;4.26;100.00;95997.22;10440473;28;1916;-76
2021/11/15 13:49:29;;;;;;;;;;;5.30;99.90;;;4.16;100.00;95999.63;10443630;28;1951;-75
2021/11/15 13:54:32;;;;;;;;;;;5.40;99.90;;;4.26;100.00;95993.72;10438684;28;1963;-75
2021/11/15 13:59:35;;;;;;;;;;;5.30;99.90;;;4.34;100.00;95999.53;10448670;28;1949;-77
2021/11/15 14:04:38;;;;;;;;;;;5.40;99.90;;;4.31;100.00;95991.19;10433286;28;1873;-76
2021/11/15 14:09:42;;;;;;;;;;;5.40;99.90;;;4.47;100.00;95989.72;10434410;28;1892;-75
2021/11/15 14:14:46;;;;;;;;;;;5.50;99.90;;;4.40;100.00;95997.00;10433405;28;1928;-75
2021/11/15 14:19:49;;;;;;;;;;;5.60;99.90;;;4.16;100.00;96002.28;10437289;28;1809;-77
2021/11/15 14:24:53;;;;;;;;;;;5.40;99.90;;;4.23;100.00;96005.66;10439052;28;1872;-76
2021/11/15 14:29:56;;;;;;;;;;;5.40;99.90;;;4.26;100.00;96002.53;10446018;28;1914;-76
2021/11/15 14:34:58;;;;;;;;;;;5.40;99.90;;;4.20;100.00;96006.13;10440307;28;1979;-76
2021/11/15 14:40:01;;;;;;;;;;;5.40;99.90;;;4.08;100.00;96005.28;10443789;28;1940;-75
2021/11/15 14:45:05;;;;;;;;;;;5.30;99.90;;;4.20;100.00;96006.13;10434478;28;1929;-75
2021/11/15 14:50:08;;;;;;;;;;;5.30;99.90;;;4.19;100.00;95996.50;10435428;28;1954;-74
2021/11/15 14:55:11;;;;;;;;;;;5.30;99.90;;;4.25;100.00;96003.56;10433982;28;1989;-72
2021/11/15 15:00:14;;;;;;;;;;;5.40;99.90;;;4.06;100.00;95999.34;10434232;28;2093;-74
2021/11/15 15:05:16;;;;;;;;;;;5.30;99.90;;;4.15;100.00;95990.00;10437022;28;1858;-75
2021/11/15 15:10:21;;;;;;;;;;;5.30;99.90;;;4.04;100.00;95988.13;10447208;28;1862;-77
2021/11/15 15:15:24;;;;;;;;;;;5.30;99.90;;;3.98;100.00;96003.16;10449736;28;1902;-75
2021/11/15 15:20:30;;;;;;;;;;;5.20;99.90;;;3.90;100.00;96003.47;10433554;28;1928;-75
2021/11/15 15:25:33;;;;;;;;;;;5.10;99.90;;;3.84;100.00;96006.22;10437308;28;1850;-75
2021/11/15 15:30:45;;;;;;;;;;;5.00;99.90;;;3.97;100.00;96008.69;10458409;28;1929;-76
2021/11/15 15:35:48;;;;;;;;;;;5.00;99.90;;;4.10;100.00;96002.38;10432380;28;6626;-76
2021/11/15 15:40:51;;;;;;;;;;;5.20;99.90;;;4.15;100.00;96003.31;10441940;28;1947;-74
2021/11/15 15:45:54;;;;;;;;;;;5.30;99.90;;;4.06;100.00;96005.47;10433120;28;6692;-74
2021/11/15 15:50:57;;;;;;;;;;;5.20;99.90;;;4.16;100.00;95991.63;10428696;28;1964;-75
2021/11/15 15:56:00;;;;;;;;;;;5.20;99.90;;;4.41;100.00;95999.44;10441945;28;2138;-75
2021/11/15 16:01:03;;;;;;;;;;;5.40;99.90;;;4.50;100.00;96002.56;10454224;28;1933;-75
2021/11/15 16:06:15;;;;;;;;;;;5.60;99.90;;;4.47;100.00;96009.19;10443803;28;1863;-76
2021/11/15 16:11:39;;;;;;;;;;;5.60;99.90;;;4.57;100.00;96000.59;10439734;28;1881;-74
2021/11/15 16:16:46;;;;;;;;;;;5.60;99.90;;;4.66;100.00;96006.41;10440105;28;1996;-75
2021/11/15 16:21:49;;;;;;;;;;;5.70;99.90;;;4.68;100.00;95996.34;10452337;28;2090;-75
2021/11/15 16:26:52;;;;;;;;;;;5.70;99.90;;;4.64;100.00;95995.97;10438310;28;6575;-76
2021/11/15 16:31:55;;;;;;;;;;;5.80;99.90;;;4.73;100.00;95983.97;10433243;28;1909;-74
2021/11/15 16:37:03;;;;;;;;;;;5.80;99.90;;;4.48;100.00;96002.00;10444816;28;2031;-74
2021/11/15 16:42:06;;;;;;;;;;;5.70;99.90;;;4.42;100.00;95986.94;10447325;28;1912;-74
2021/11/15 16:47:09;;;;;;;;;;;5.60;99.90;;;4.45;100.00;95997.13;10445674;28;1869;-72
2021/11/15 16:52:12;;;;;;;;;;;5.60;99.90;;;4.50;100.00;95994.56;10444020;28;2017;-72
2021/11/15 16:57:15;;;;;;;;;;;5.60;99.90;;;4.48;100.00;95996.66;10449544;28;2024;-76
2021/11/15 17:02:23;;;;;;;;;;;5.60;99.90;;;4.41;100.00;95999.44;10447089;28;2043;-75
2021/11/15 17:07:27;;;;;;;;;;;5.60;99.90;;;4.38;100.00;95997.22;10446573;28;3203;-71
2021/11/15 17:12:45;;;;;;;;;;;5.60;99.90;;;4.43;100.00;96001.88;10445590;28;3402;-69
2021/11/15 17:17:49;;;;;;;;;;;5.60;99.90;;;4.26;100.00;96002.53;10448131;28;1977;-71
2021/11/15 17:22:57;;;;;;;;;;;5.50;99.90;;;4.39;100.00;96008.69;10452566;28;1838;-71
2021/11/15 17:28:00;;;;;;;;;;;5.50;99.90;;;4.39;100.00;96000.69;10443117;28;1860;-72
2021/11/15 17:33:03;;;;;;;;;;;5.50;99.90;;;4.23;100.00;96004.84;10442243;28;1941;-72
2021/11/15 17:38:07;;;;;;;;;;;5.50;99.90;;;4.18;100.00;96000.19;10448961;28;2012;-71
2021/11/15 17:43:10;;;;;;;;;;;5.40;99.90;;;4.19;100.00;96004.47;10444399;28;1932;-70
2021/11/15 17:48:16;;;;;;;;;;;5.40;99.90;;;4.21;100.00;96007.72;10435647;28;1960;-69
2021/11/15 17:53:27;;;;;;;;;;;5.30;99.90;;;4.27;100.00;95990.84;10444488;28;1872;-75
2021/11/15 17:59:01;;;;;;;;;;;5.40;99.90;;;4.30;100.00;95994.91;10453036;28;2015;-73
2021/11/15 18:04:25;;;;;;;;;;;5.40;99.90;;;4.36;100.00;95990.50;10455727;28;1946;-76
2021/11/15 18:09:50;;;;;;;;;;;5.40;99.90;;;4.25;100.00;95990.25;10455198;28;1953;-74
2021/11/15 18:14:54;;;;;;;;;;;5.40;99.90;;;4.20;100.00;95995.47;10450960;28;1944;-70
2021/11/15 18:19:57;;;;;;;;;;;5.30;99.90;;;4.28;100.00;95992.47;10446692;28;1924;-71
2021/11/15 18:25:01;;;;;;;;;;;5.30;99.90;;;4.47;100.00;95995.88;10451093;28;2290;-70
2021/11/15 18:30:04;;;;;;;;;;;5.50;99.90;;;4.40;100.00;95994.34;10454707;28;1917;-70
2021/11/15 18:35:08;;;;;;;;;;;5.50;99.90;;;4.46;100.00;95998.75;10453637;28;1967;-73
2021/11/15 18:40:13;;;;;;;;;;;5.50;99.90;;;4.31;100.00;95992.00;10443736;28;1877;-71
2021/11/15 18:45:16;;;;;;;;;;;5.40;99.90;;;4.37;100.00;95997.47;10442038;28;1976;-70
2021/11/15 18:50:20;;;;;;;;;;;5.50;99.90;;;4.55;100.00;95997.38;10462361;28;1852;-76
2021/11/15 18:55:23;;;;;;;;;;;5.50;99.90;;;4.58;100.00;95991.56;10453799;28;1910;-77
2021/11/15 19:00:26;;;;;;;;;;;5.60;99.90;;;4.55;100.00;95984.06;10444116;28;1892;-77
2021/11/15 19:05:30;;;;;;;;;;;5.60;99.90;;;4.49;100.00;95987.63;10455284;28;1818;-76
2021/11/15 19:10:46;;;;;;;;;;;5.60;99.90;;;4.59;100.00;95985.22;10444469;28;1924;-75
2021/11/15 19:15:49;;;;;;;;;;;5.60;99.90;;;4.62;100.00;95984.75;10449323;28;1940;-72
2021/11/15 19:20:52;;;;;;;;;;;5.80;99.90;;;4.59;100.00;95993.22;10455820;28;1901;-71
2021/11/15 19:25:57;;;;;;;;;;;5.80;99.90;;;4.56;100.00;96004.31;10453130;28;2023;-72
2021/11/15 19:31:00;;;;;;;;;;;5.70;99.90;;;4.64;100.00;96003.97;10445197;28;1889;-76
2021/11/15 19:36:03;;;;;;;;;;;5.70;99.90;;;4.66;100.00;96003.75;10451874;28;2021;-74
2021/11/15 19:41:09;;;;;;;;;;;5.70;99.90;;;4.65;100.00;96005.63;10428906;28;2179;-74
2021/11/15 19:46:12;;;;;;;;;;;5.70;99.90;;;4.71;100.00;96012.69;10436518;28;2022;-72
2021/11/15 19:51:17;;;;;;;;;;;5.60;99.90;;;4.64;100.00;96011.94;10444072;28;2005;-73
2021/11/15 19:56:20;;;;;;;;;;;5.80;99.90;;;4.57;100.00;96008.59;10447199;28;1991;-75
2021/11/15 20:01:23;;;;;;;;;;;5.60;99.90;;;4.55;100.00;96013.34;10442220;28;2048;-74
2021/11/15 20:06:26;;;;;;;;;;;5.60;99.90;;;4.45;100.00;96019.22;10445620;28;1976;-74
2021/11/15 20:11:29;;;;;;;;;;;5.60;99.90;;;4.33;100.00;96021.88;10442360;28;2053;-75
2021/11/15 20:16:34;;;;;;;;;;;5.50;99.90;;;4.41;100.00;96017.25;10445560;28;2124;-75
2021/11/15 20:21:37;;;;;;;;;;;5.50;99.90;;;4.43;100.00;96017.84;10435561;28;2017;-74
2021/11/15 20:26:40;;;;;;;;;;;5.40;99.90;;;4.51;100.00;96018.31;10436821;28;2000;-74
2021/11/15 20:31:43;;;;;;;;;;;5.50;99.90;;;4.48;100.00;96015.31;10443576;28;2396;-74
2021/11/15 20:36:47;;;;;;;;;;;5.50;99.90;;;4.40;100.00;96010.31;10437891;28;2065;-73
2021/11/15 20:41:50;;;;;;;;;;;5.60;99.90;;;4.42;100.00;96008.22;10424413;28;2056;-76
2021/11/15 20:47:12;;;;;;;;;;;5.50;99.90;;;4.48;100.00;96005.47;10424189;28;2271;-77
2021/11/15 20:52:17;;;;;;;;;;;5.50;99.90;;;4.47;100.00;96000.38;10427450;28;2053;-76
2021/11/15 20:57:20;;;;;;;;;;;5.60;99.90;;;4.44;100.00;96006.94;10426988;28;2061;-77
2021/11/15 21:02:23;;;;;;;;;;;5.50;99.90;;;4.55;100.00;96000.03;10441712;28;2013;-77
2021/11/15 21:07:26;;;;;;;;;;;5.50;99.90;;;4.56;100.00;95994.47;10446888;28;2078;-76
2021/11/15 21:12:31;;;;;;;;;;;5.60;99.90;;;4.30;100.00;95995.72;10449395;28;2121;-77
2021/11/15 21:17:34;;;;;;;;;;;5.50;99.90;;;4.55;100.00;95997.38;10449757;28;2017;-77
2021/11/15 21:22:37;;;;;;;;;;;5.50;99.90;;;4.60;100.00;96005.47;10437972;28;2020;-77
2021/11/15 21:27:40;;;;;;;;;;;5.60;99.90;;;4.46;100.00;95999.56;10440028;28;2068;-77
2021/11/15 21:32:43;;;;;;;;;;;5.50;99.90;;;4.47;100.00;96000.38;10443968;28;2023;-74
2021/11/15 21:37:46;;;;;;;;;;;5.50;99.90;;;4.49;100.00;95998.28;10433647;28;2003;-73
2021/11/15 21:42:48;;;;;;;;;;;5.50;99.90;;;4.56;100.00;95999.00;10427360;28;2065;-77
2021/11/15 21:47:51;;;;;;;;;;;5.60;99.90;;;4.57;100.00;95995.28;10434320;28;2134;-75
2021/11/15 21:52:55;;;;;;;;;;;5.60;99.90;;;4.50;100.00;95989.25;10433931;28;1932;-74
2021/11/15 21:57:58;;;;;;;;;;;5.50;99.90;;;4.45;100.00;95991.78;10432425;28;1911;-74
2021/11/15 22:03:02;;;;;;;;;;;5.60;99.90;;;4.37;100.00;95992.13;10432596;28;1879;-74
2021/11/15 22:08:04;;;;;;;;;;;5.40;99.90;;;4.29;100.00;95993.28;10436953;28;1866;-74
2021/11/15 22:13:07;;;;;;;;;;;5.50;99.90;;;4.35;100.00;95995.03;10438409;28;1858;-74
2021/11/15 22:18:14;;;;;;;;;;;5.40;99.90;;;4.38;100.00;96009.72;10440850;28;1905;-74
2021/11/15 22:23:17;;;;;;;;;;;5.40;99.90;;;4.52;100.00;96013.81;10442313;28;1452;-74
2021/11/15 22:28:20;;;;;;;;;;;5.50;99.90;;;4.32;100.00;96006.13;10445630;28;1454;-72
2021/11/15 22:33:23;;;;;;;;;;;5.40;99.90;;;4.29;100.00;96004.72;10446943;28;1462;-73
2021/11/15 22:38:26;;;;;;;;;;;5.40;99.90;;;4.15;100.00;96003.31;10446952;28;1902;-73
2021/11/15 22:43:29;;;;;;;;;;;5.40;99.90;;;4.19;100.00;95993.00;10442783;28;1912;-73
2021/11/15 22:48:32;;;;;;;;;;;5.30;99.90;;;4.02;100.00;95992.88;10443735;28;1923;-74
2021/11/15 22:53:40;;;;;;;;;;;5.20;99.90;;;4.17;100.00;95985.28;10451018;28;1901;-74
2021/11/15 22:58:43;;;;;;;;;;;5.30;99.90;;;4.19;100.00;95983.19;10449492;28;2033;-74
2021/11/15 23:03:46;;;;;;;;;;;5.40;99.90;;;4.09;100.00;95977.63;10450560;28;1872;-74
2021/11/15 23:08:48;;;;;;;;;;;5.50;99.90;;;4.02;100.00;95982.22;10445872;28;1904;-74
2021/11/15 23:13:51;;;;;;;;;;;5.20;99.90;;;3.99;100.00;95982.66;10447653;28;2075;-73
2021/11/15 23:18:54;;;;;;;;;;;5.20;99.90;;;4.10;100.00;95973.09;10447218;28;1924;-73
2021/11/15 23:23:57;;;;;;;;;;;5.20;99.90;;;4.00;100.00;95984.28;10442139;28;1969;-73
2021/11/15 23:29:00;;;;;;;;;;;5.20;99.90;;;4.04;100.00;95978.28;10445399;28;1902;-74
2021/11/15 23:34:03;;;;;;;;;;;5.20;99.90;;;4.19;100.00;95971.72;10442281;28;2072;-74